Time;durP1;ratioP1;P1;durP2;ratioP2;P2;SDS_P1;SDS_P2;PMS_P1;PMS_P2;Temp;Humidity;BMP_temperature;BMP_pressure;BME280_temperature;BME280_humidity;BME280_pressure;Samples;Min_cycle;Max_cycle;Signal;HPM_P1;HPM_P2
2023/06/09 00:01:44;;;;;;;9.27;8.47;;;;;;;;;;5059068;28;20420;-73
2023/06/09 00:04:13;;;;;;;10.80;9.90;;;;;;;;;;5058901;28;20448;-73
2023/06/09 00:06:39;;;;;;;10.43;9.47;;;;;;;;;;5058374;28;20460;-73
2023/06/09 00:09:06;;;;;;;10.50;9.43;;;;;;;;;;5058399;28;20794;-73
2023/06/09 00:11:32;;;;;;;11.27;10.10;;;;;;;;;;5059649;28;20403;-73
2023/06/09 00:13:58;;;;;;;10.37;9.37;;;;;;;;;;5057466;28;20430;-73
2023/06/09 00:16:25;;;;;;;14.77;10.53;;;;;;;;;;5059390;28;20851;-73
2023/06/09 00:18:51;;;;;;;12.83;11.50;;;;;;;;;;5058920;28;20499;-73
2023/06/09 00:21:18;;;;;;;11.87;10.73;;;;;;;;;;5059027;28;20398;-73
2023/06/09 00:23:47;;;;;;;11.60;10.37;;;;;;;;;;5058060;28;20395;-74
2023/06/09 00:26:13;;;;;;;11.43;10.50;;;;;;;;;;5058518;28;20400;-73
2023/06/09 00:28:42;;;;;;;11.57;10.37;;;;;;;;;;5059079;28;20441;-73
2023/06/09 00:31:08;;;;;;;12.93;9.37;;;;;;;;;;5058716;28;20375;-73
2023/06/09 00:33:34;;;;;;;11.73;10.47;;;;;;;;;;5058446;28;20474;-73
2023/06/09 00:36:00;;;;;;;10.70;9.60;;;;;;;;;;5058902;28;20435;-73
2023/06/09 00:38:27;;;;;;;10.90;9.80;;;;;;;;;;5058545;28;20868;-73
2023/06/09 00:40:53;;;;;;;11.90;10.70;;;;;;;;;;5058561;28;20404;-73
2023/06/09 00:43:19;;;;;;;16.10;11.30;;;;;;;;;;5058702;28;20411;-73
2023/06/09 00:45:45;;;;;;;12.00;11.00;;;;;;;;;;5058178;28;20408;-73
2023/06/09 00:48:12;;;;;;;12.27;11.07;;;;;;;;;;5058724;28;20927;-73
2023/06/09 00:50:38;;;;;;;12.27;11.10;;;;;;;;;;5058270;28;20404;-73
2023/06/09 00:53:05;;;;;;;12.47;10.23;;;;;;;;;;5058176;28;20412;-73
2023/06/09 00:55:33;;;;;;;11.80;10.80;;;;;;;;;;5058407;28;20472;-73
2023/06/09 00:58:00;;;;;;;12.97;11.60;;;;;;;;;;5058272;28;20408;-73
2023/06/09 01:00:27;;;;;;;12.00;10.90;;;;;;;;;;5058295;28;20375;-73
2023/06/09 01:02:54;;;;;;;12.57;11.27;;;;;;;;;;5057836;28;20426;-73
2023/06/09 01:05:20;;;;;;;12.40;11.20;;;;;;;;;;5057313;28;20526;-73
2023/06/09 01:07:57;;;;;;;11.90;10.63;;;;;;;;;;5057498;28;20420;-74
2023/06/09 01:10:32;;;;;;;11.23;10.00;;;;;;;;;;5058031;28;20876;-72
2023/06/09 01:13:09;;;;;;;12.67;11.47;;;;;;;;;;5057745;28;20390;-73
2023/06/09 01:15:39;;;;;;;12.30;11.10;;;;;;;;;;5057430;28;20438;-73
2023/06/09 01:18:08;;;;;;;11.53;10.33;;;;;;;;;;5057514;28;20851;-73
2023/06/09 01:20:39;;;;;;;11.20;10.13;;;;;;;;;;5057593;28;20412;-73
2023/06/09 01:23:06;;;;;;;16.33;11.70;;;;;;;;;;5057531;28;20507;-73
2023/06/09 01:25:46;;;;;;;14.03;12.03;;;;;;;;;;5057520;28;20412;-73
2023/06/09 01:28:16;;;;;;;13.87;12.57;;;;;;;;;;5058178;28;20370;-73
2023/06/09 01:30:43;;;;;;;13.80;12.20;;;;;;;;;;5057643;28;20438;-73
2023/06/09 01:33:10;;;;;;;12.60;11.50;;;;;;;;;;5057605;28;20481;-73
2023/06/09 01:35:37;;;;;;;14.13;12.67;;;;;;;;;;5057693;28;20479;-73
2023/06/09 01:38:04;;;;;;;12.57;11.30;;;;;;;;;;5057131;28;20415;-73
2023/06/09 01:40:31;;;;;;;15.80;14.30;;;;;;;;;;5055983;28;20405;-73
2023/06/09 01:42:58;;;;;;;14.13;12.63;;;;;;;;;;5057792;28;20391;-73
2023/06/09 01:45:25;;;;;;;17.50;13.20;;;;;;;;;;5057175;28;20405;-73
2023/06/09 01:47:51;;;;;;;14.33;12.93;;;;;;;;;;5056765;28;20416;-74
2023/06/09 01:50:22;;;;;;;13.87;12.63;;;;;;;;;;5057135;28;20939;-73
2023/06/09 01:52:52;;;;;;;12.57;11.53;;;;;;;;;;5057350;28;20429;-73
2023/06/09 01:55:20;;;;;;;15.77;12.47;;;;;;;;;;5057691;28;20462;-73
2023/06/09 01:57:51;;;;;;;12.43;11.33;;;;;;;;;;5056439;28;20371;-75
2023/06/09 02:00:18;;;;;;;14.47;12.87;;;;;;;;;;5057986;28;20491;-73
2023/06/09 02:02:46;;;;;;;14.33;12.43;;;;;;;;;;5057173;28;20391;-73
2023/06/09 02:05:13;;;;;;;12.70;11.40;;;;;;;;;;5057380;28;20746;-74
2023/06/09 02:07:41;;;;;;;12.50;11.20;;;;;;;;;;5057165;28;20430;-73
2023/06/09 02:10:08;;;;;;;12.57;11.47;;;;;;;;;;5056823;28;20417;-73
2023/06/09 02:12:34;;;;;;;12.43;11.20;;;;;;;;;;5057005;28;20846;-73
2023/06/09 02:15:01;;;;;;;13.33;12.23;;;;;;;;;;5057028;28;20438;-73
2023/06/09 02:17:27;;;;;;;12.30;11.20;;;;;;;;;;5057346;28;20412;-73
2023/06/09 02:19:54;;;;;;;11.83;10.73;;;;;;;;;;5056697;28;20446;-73
2023/06/09 02:22:20;;;;;;;11.97;10.87;;;;;;;;;;5057159;28;20382;-73
2023/06/09 02:24:46;;;;;;;12.07;10.97;;;;;;;;;;5056954;28;20458;-73
2023/06/09 02:27:12;;;;;;;12.77;11.77;;;;;;;;;;5056721;28;20474;-73
2023/06/09 02:29:38;;;;;;;12.93;11.73;;;;;;;;;;5056709;28;20400;-73
2023/06/09 02:32:05;;;;;;;12.87;11.77;;;;;;;;;;5056670;28;20475;-73
2023/06/09 02:34:31;;;;;;;12.63;11.47;;;;;;;;;;5056404;28;20464;-73
2023/06/09 02:36:59;;;;;;;11.97;10.97;;;;;;;;;;5055743;28;20465;-73
2023/06/09 02:39:25;;;;;;;12.10;11.00;;;;;;;;;;5056751;28;20809;-73
2023/06/09 02:41:51;;;;;;;13.03;11.73;;;;;;;;;;5056266;28;20401;-73
2023/06/09 02:44:17;;;;;;;14.03;12.60;;;;;;;;;;5056928;28;20432;-73
2023/06/09 02:46:44;;;;;;;12.97;11.80;;;;;;;;;;5056237;28;20393;-73
2023/06/09 02:49:10;;;;;;;14.43;13.00;;;;;;;;;;5055415;28;20895;-73
2023/06/09 02:51:36;;;;;;;14.47;13.10;;;;;;;;;;5055859;28;20412;-73
2023/06/09 02:54:05;;;;;;;13.87;12.60;;;;;;;;;;5055936;28;20464;-73
2023/06/09 02:56:31;;;;;;;14.50;12.63;;;;;;;;;;5055949;28;20387;-73
2023/06/09 02:58:57;;;;;;;13.10;11.70;;;;;;;;;;5056037;28;20910;-73
2023/06/09 03:01:23;;;;;;;13.83;12.60;;;;;;;;;;5056128;28;20499;-73
2023/06/09 03:03:49;;;;;;;13.80;12.50;;;;;;;;;;5055881;28;20407;-73
2023/06/09 03:06:17;;;;;;;15.07;13.73;;;;;;;;;;5056483;28;20719;-73
2023/06/09 03:08:43;;;;;;;13.40;12.27;;;;;;;;;;5056507;28;20408;-73
2023/06/09 03:11:10;;;;;;;13.50;12.40;;;;;;;;;;5056552;28;20382;-73
2023/06/09 03:13:36;;;;;;;15.60;14.10;;;;;;;;;;5055992;28;20413;-73
2023/06/09 03:16:03;;;;;;;15.03;13.53;;;;;;;;;;5056048;28;20405;-73
2023/06/09 03:18:29;;;;;;;15.20;13.07;;;;;;;;;;5056446;28;20410;-73
2023/06/09 03:20:55;;;;;;;15.93;13.60;;;;;;;;;;5057080;28;20411;-73
2023/06/09 03:23:21;;;;;;;14.37;12.87;;;;;;;;;;5056567;28;20465;-73
2023/06/09 03:25:51;;;;;;;14.87;13.47;;;;;;;;;;5056881;28;20913;-73
2023/06/09 03:28:17;;;;;;;15.93;14.43;;;;;;;;;;5056256;28;20412;-73
2023/06/09 03:30:43;;;;;;;15.60;13.97;;;;;;;;;;5056433;28;20756;-73
2023/06/09 03:33:11;;;;;;;15.20;13.60;;;;;;;;;;5056246;28;20441;-73
2023/06/09 03:35:37;;;;;;;16.20;14.50;;;;;;;;;;5056408;28;20833;-73
2023/06/09 03:38:03;;;;;;;15.83;14.23;;;;;;;;;;5055455;28;20473;-73
2023/06/09 03:40:29;;;;;;;15.70;14.00;;;;;;;;;;5056466;28;20471;-73
2023/06/09 03:42:55;;;;;;;15.90;14.20;;;;;;;;;;5055685;28;20457;-74
2023/06/09 03:45:21;;;;;;;13.57;12.17;;;;;;;;;;5055764;28;20398;-73
2023/06/09 03:47:47;;;;;;;13.47;12.23;;;;;;;;;;5057717;28;20797;-73
2023/06/09 03:50:13;;;;;;;19.43;13.00;;;;;;;;;;5059526;28;20418;-73
2023/06/09 03:52:39;;;;;;;29.93;14.90;;;;;;;;;;5059684;28;20415;-73
2023/06/09 03:55:06;;;;;;;15.83;14.33;;;;;;;;;;5059450;28;20490;-73
2023/06/09 03:57:32;;;;;;;16.67;13.93;;;;;;;;;;5059941;28;20400;-73
2023/06/09 03:59:58;;;;;;;15.77;14.43;;;;;;;;;;5059308;28;20801;-73
2023/06/09 04:02:24;;;;;;;15.57;13.97;;;;;;;;;;5060150;28;20444;-73
2023/06/09 04:04:51;;;;;;;15.97;14.27;;;;;;;;;;5059809;28;20892;-73
2023/06/09 04:07:17;;;;;;;15.47;13.40;;;;;;;;;;5059688;28;20416;-73
2023/06/09 04:09:43;;;;;;;18.27;16.53;;;;;;;;;;5060538;28;20816;-73
2023/06/09 04:12:09;;;;;;;16.90;15.30;;;;;;;;;;5059859;28;20390;-73
2023/06/09 04:14:36;;;;;;;17.70;15.87;;;;;;;;;;5059496;28;20470;-73
2023/06/09 04:17:02;;;;;;;18.23;16.60;;;;;;;;;;5059268;28;20397;-73
2023/06/09 04:19:28;;;;;;;18.97;16.93;;;;;;;;;;5059329;28;20440;-73
2023/06/09 04:21:54;;;;;;;18.40;16.50;;;;;;;;;;5059761;28;20482;-73
2023/06/09 04:24:20;;;;;;;18.33;16.67;;;;;;;;;;5058626;28;20431;-73
2023/06/09 04:26:47;;;;;;;18.70;16.90;;;;;;;;;;5058658;28;20409;-73
2023/06/09 04:29:15;;;;;;;17.27;15.50;;;;;;;;;;5058904;28;20904;-73
2023/06/09 04:31:43;;;;;;;18.63;16.50;;;;;;;;;;5057557;28;20435;-73
2023/06/09 04:34:10;;;;;;;18.20;16.33;;;;;;;;;;5059085;28;20429;-73
2023/06/09 04:36:38;;;;;;;18.87;17.03;;;;;;;;;;5058690;28;20383;-72
2023/06/09 04:39:05;;;;;;;21.13;19.03;;;;;;;;;;5058882;28;20393;-73
2023/06/09 04:41:31;;;;;;;22.10;19.90;;;;;;;;;;5058409;28;20387;-73
2023/06/09 04:44:03;;;;;;;19.67;17.87;;;;;;;;;;5058659;28;20435;-74
2023/06/09 04:46:31;;;;;;;21.37;19.37;;;;;;;;;;5058433;28;20402;-73
2023/06/09 04:48:57;;;;;;;23.50;19.77;;;;;;;;;;5056869;28;20394;-74
2023/06/09 04:51:24;;;;;;;20.40;18.57;;;;;;;;;;5058184;28;20404;-73
2023/06/09 04:53:54;;;;;;;22.80;20.47;;;;;;;;;;5056733;28;20857;-72
2023/06/09 04:56:20;;;;;;;21.60;19.30;;;;;;;;;;5058289;28;20409;-73
2023/06/09 04:58:46;;;;;;;19.60;17.87;;;;;;;;;;5058289;28;20412;-73
2023/06/09 05:01:13;;;;;;;22.53;20.27;;;;;;;;;;5057575;28;20396;-73
2023/06/09 05:03:40;;;;;;;20.07;18.37;;;;;;;;;;5058097;28;20415;-73
2023/06/09 05:06:06;;;;;;;22.93;20.73;;;;;;;;;;5056814;28;20481;-72
2023/06/09 05:08:32;;;;;;;22.13;20.03;;;;;;;;;;5058470;28;20461;-73
2023/06/09 05:10:58;;;;;;;23.60;21.10;;;;;;;;;;5056904;28;20491;-74
2023/06/09 05:13:24;;;;;;;23.40;20.40;;;;;;;;;;5058506;28;20452;-73
2023/06/09 05:15:50;;;;;;;23.37;20.93;;;;;;;;;;5058121;28;20450;-72
2023/06/09 05:18:19;;;;;;;24.53;21.83;;;;;;;;;;5057609;28;20387;-73
2023/06/09 05:20:45;;;;;;;24.67;22.20;;;;;;;;;;5061238;28;20422;-84
2023/06/09 05:23:12;;;;;;;24.23;21.83;;;;;;;;;;5064873;28;20383;-85
2023/06/09 05:25:38;;;;;;;25.73;22.50;;;;;;;;;;5067224;28;20453;-84
2023/06/09 05:28:04;;;;;;;26.30;23.60;;;;;;;;;;5064055;28;20391;-85
2023/06/09 05:30:30;;;;;;;29.07;25.97;;;;;;;;;;5066353;28;20428;-84
2023/06/09 05:32:56;;;;;;;27.63;24.93;;;;;;;;;;5063268;28;20442;-84
2023/06/09 05:35:23;;;;;;;27.10;24.40;;;;;;;;;;5075676;28;20474;-84
2023/06/09 05:37:50;;;;;;;30.07;26.87;;;;;;;;;;5068652;28;20407;-84
2023/06/09 05:40:16;;;;;;;28.07;25.37;;;;;;;;;;5064520;28;20384;-84
2023/06/09 05:42:42;;;;;;;29.27;26.27;;;;;;;;;;5062796;28;20383;-85
2023/06/09 05:45:08;;;;;;;26.10;23.50;;;;;;;;;;5060027;28;20418;-85
2023/06/09 05:47:34;;;;;;;26.30;23.80;;;;;;;;;;5061498;28;20420;-84
2023/06/09 05:50:00;;;;;;;25.37;22.90;;;;;;;;;;5065202;28;20389;-85
2023/06/09 05:52:26;;;;;;;24.93;22.33;;;;;;;;;;5054405;28;20400;-85
2023/06/09 05:54:52;;;;;;;26.53;23.70;;;;;;;;;;5053971;28;20462;-83
2023/06/09 05:57:22;;;;;;;26.37;23.57;;;;;;;;;;5054797;28;20415;-86
2023/06/09 05:59:48;;;;;;;23.87;21.57;;;;;;;;;;5054491;28;20819;-86
2023/06/09 06:02:14;;;;;;;24.77;22.23;;;;;;;;;;5054150;28;20747;-86
2023/06/09 06:04:40;;;;;;;24.83;22.47;;;;;;;;;;5054681;28;20416;-86
2023/06/09 06:07:06;;;;;;;23.30;21.10;;;;;;;;;;5053812;28;20915;-86
2023/06/09 06:09:32;;;;;;;21.97;19.70;;;;;;;;;;5054825;28;20771;-86
2023/06/09 06:11:58;;;;;;;22.90;20.50;;;;;;;;;;5054313;28;20492;-85
2023/06/09 06:14:24;;;;;;;21.90;18.83;;;;;;;;;;5054240;28;20474;-86
2023/06/09 06:16:50;;;;;;;26.83;20.00;;;;;;;;;;5054769;28;20387;-86
2023/06/09 06:19:16;;;;;;;18.17;16.37;;;;;;;;;;5053029;28;20391;-83
2023/06/09 06:21:43;;;;;;;17.13;15.53;;;;;;;;;;5054301;28;20423;-84
2023/06/09 06:24:09;;;;;;;17.20;15.40;;;;;;;;;;5055374;28;20423;-84
2023/06/09 06:26:36;;;;;;;18.70;16.97;;;;;;;;;;5060167;28;20412;-84
2023/06/09 06:29:02;;;;;;;19.90;16.67;;;;;;;;;;5059825;28;20446;-84
2023/06/09 06:31:29;;;;;;;17.07;15.33;;;;;;;;;;5054987;28;20471;-84
2023/06/09 06:33:55;;;;;;;15.03;13.73;;;;;;;;;;5054180;28;20442;-84
2023/06/09 06:36:21;;;;;;;15.60;14.10;;;;;;;;;;5053963;28;20942;-84
2023/06/09 06:38:48;;;;;;;14.23;12.77;;;;;;;;;;5054503;28;20546;-84
2023/06/09 06:41:14;;;;;;;14.83;13.33;;;;;;;;;;5053722;28;20378;-85
2023/06/09 06:43:41;;;;;;;15.17;13.67;;;;;;;;;;5054369;28;20443;-85
2023/06/09 06:46:09;;;;;;;12.47;11.37;;;;;;;;;;5052846;28;20426;-84
2023/06/09 06:48:38;;;;;;;11.83;10.17;;;;;;;;;;5052653;28;20426;-85
2023/06/09 06:51:05;;;;;;;10.83;9.73;;;;;;;;;;5053830;28;20454;-83
2023/06/09 06:53:31;;;;;;;11.60;9.83;;;;;;;;;;5053842;28;20375;-84
2023/06/09 06:55:57;;;;;;;10.60;9.50;;;;;;;;;;5053397;28;20390;-84
2023/06/09 06:58:24;;;;;;;9.53;8.67;;;;;;;;;;5052800;28;20411;-84
2023/06/09 07:00:50;;;;;;;9.10;8.20;;;;;;;;;;5054097;28;20503;-83
2023/06/09 07:03:16;;;;;;;9.33;8.40;;;;;;;;;;5052650;28;21005;-83
2023/06/09 07:05:42;;;;;;;8.90;8.10;;;;;;;;;;5054428;28;20482;-84
2023/06/09 07:08:08;;;;;;;8.60;7.73;;;;;;;;;;5054549;28;20893;-83
2023/06/09 07:10:34;;;;;;;9.23;8.33;;;;;;;;;;5053581;28;20404;-83
2023/06/09 07:13:00;;;;;;;10.73;8.40;;;;;;;;;;5053974;28;20499;-84
2023/06/09 07:15:26;;;;;;;8.60;7.80;;;;;;;;;;5053985;28;20799;-84
2023/06/09 07:17:52;;;;;;;8.43;7.50;;;;;;;;;;5053371;28;20511;-84
2023/06/09 07:20:18;;;;;;;9.83;8.40;;;;;;;;;;5053407;28;20407;-84
2023/06/09 07:22:50;;;;;;;18.23;8.10;;;;;;;;;;5053967;28;20458;-84
2023/06/09 07:25:17;;;;;;;7.17;6.57;;;;;;;;;;5057303;28;20452;-84
2023/06/09 07:27:43;;;;;;;8.00;7.20;;;;;;;;;;5057801;28;20741;-84
2023/06/09 07:30:09;;;;;;;7.70;6.70;;;;;;;;;;5057626;28;20399;-84
2023/06/09 07:32:36;;;;;;;7.27;6.60;;;;;;;;;;5058046;28;20499;-85
2023/06/09 07:35:02;;;;;;;7.63;6.83;;;;;;;;;;5057904;28;20811;-84
2023/06/09 07:37:27;;;;;;;7.50;6.80;;;;;;;;;;5057650;28;20407;-84
2023/06/09 07:39:53;;;;;;;7.37;6.63;;;;;;;;;;5057264;28;20503;-85
2023/06/09 07:42:20;;;;;;;7.47;6.70;;;;;;;;;;5056941;28;20896;-84
2023/06/09 07:44:46;;;;;;;7.10;6.20;;;;;;;;;;5056685;28;20383;-85
2023/06/09 07:47:11;;;;;;;8.47;6.93;;;;;;;;;;5054971;28;20432;-85
2023/06/09 07:49:37;;;;;;;8.40;7.37;;;;;;;;;;5057715;28;20394;-84
2023/06/09 07:52:05;;;;;;;7.90;6.93;;;;;;;;;;5056382;28;20712;-85
2023/06/09 07:54:31;;;;;;;7.50;6.87;;;;;;;;;;5056304;28;20895;-84
2023/06/09 07:56:57;;;;;;;9.40;6.70;;;;;;;;;;5055383;28;20495;-85
2023/06/09 07:59:23;;;;;;;6.77;6.10;;;;;;;;;;5056468;28;20404;-85
2023/06/09 08:01:49;;;;;;;10.73;6.53;;;;;;;;;;5056561;28;20445;-86
2023/06/09 08:04:15;;;;;;;8.83;5.83;;;;;;;;;;5056468;28;20412;-84
2023/06/09 08:06:41;;;;;;;7.73;6.03;;;;;;;;;;5056508;28;20462;-86
2023/06/09 08:09:09;;;;;;;7.43;6.00;;;;;;;;;;5054557;28;20753;-86
2023/06/09 08:11:35;;;;;;;6.07;5.47;;;;;;;;;;5055671;28;20400;-86
2023/06/09 08:14:01;;;;;;;5.90;5.40;;;;;;;;;;5056017;28;20459;-86
2023/06/09 08:16:27;;;;;;;6.10;5.50;;;;;;;;;;5055987;28;20488;-84
2023/06/09 08:18:53;;;;;;;6.13;5.07;;;;;;;;;;5055382;28;20519;-85
2023/06/09 08:21:19;;;;;;;5.87;5.23;;;;;;;;;;5055835;28;20438;-86
2023/06/09 08:23:45;;;;;;;6.40;5.07;;;;;;;;;;5056060;28;20416;-86
2023/06/09 08:26:11;;;;;;;7.53;6.10;;;;;;;;;;5055387;28;20396;-86
2023/06/09 08:28:38;;;;;;;9.17;5.43;;;;;;;;;;5056845;28;20404;-83
2023/06/09 08:31:04;;;;;;;5.30;4.90;;;;;;;;;;5055572;28;20400;-84
2023/06/09 08:33:33;;;;;;;6.63;5.70;;;;;;;;;;5054748;28;20482;-84
2023/06/09 08:36:01;;;;;;;9.43;5.57;;;;;;;;;;5053961;28;21047;-83
2023/06/09 08:38:27;;;;;;;5.57;4.60;;;;;;;;;;5055786;28;20783;-85
2023/06/09 08:40:54;;;;;;;6.17;5.57;;;;;;;;;;5055462;28;20412;-86
2023/06/09 08:43:20;;;;;;;5.50;5.10;;;;;;;;;;5054819;28;20415;-84
2023/06/09 08:45:46;;;;;;;5.70;5.30;;;;;;;;;;5055833;28;20404;-85
2023/06/09 08:48:16;;;;;;;6.63;5.83;;;;;;;;;;5057582;28;20412;-86
2023/06/09 08:50:42;;;;;;;5.30;4.90;;;;;;;;;;5059088;28;20408;-85
2023/06/09 08:53:09;;;;;;;5.07;4.67;;;;;;;;;;5056954;28;20932;-85
2023/06/09 08:55:36;;;;;;;5.50;5.10;;;;;;;;;;5057176;28;20459;-85
2023/06/09 08:58:02;;;;;;;9.23;5.90;;;;;;;;;;5056135;28;20466;-84
2023/06/09 09:00:29;;;;;;;8.50;5.60;;;;;;;;;;5055418;28;20404;-85
2023/06/09 09:02:56;;;;;;;6.13;5.30;;;;;;;;;;5051765;28;20420;-86
2023/06/09 09:05:22;;;;;;;8.07;5.60;;;;;;;;;;5052449;28;20436;-87
2023/06/09 09:07:49;;;;;;;5.67;5.13;;;;;;;;;;5055140;28;20750;-87
2023/06/09 09:10:15;;;;;;;6.10;5.60;;;;;;;;;;5053853;28;20423;-86
2023/06/09 09:12:48;;;;;;;7.40;5.00;;;;;;;;;;5054546;28;20444;-88
2023/06/09 09:15:14;;;;;;;6.00;4.87;;;;;;;;;;5054196;28;20463;-86
2023/06/09 09:17:40;;;;;;;5.47;4.97;;;;;;;;;;5054200;28;20439;-86
2023/06/09 09:20:10;;;;;;;5.40;4.90;;;;;;;;;;5053969;28;20446;-87
2023/06/09 09:22:56;;;;;;;4.83;4.40;;;;;;;;;;5054408;28;20418;-87
2023/06/09 09:25:26;;;;;;;5.10;4.60;;;;;;;;;;5053712;28;20772;-86
2023/06/09 09:28:01;;;;;;;5.60;4.37;;;;;;;;;;5054188;28;20420;-86
2023/06/09 09:30:41;;;;;;;4.90;4.40;;;;;;;;;;5054625;28;20426;-87
2023/06/09 09:33:08;;;;;;;5.80;3.63;;;;;;;;;;5054531;28;20476;-88
2023/06/09 09:35:37;;;;;;;5.07;4.40;;;;;;;;;;5054429;28;20847;-89
2023/06/09 09:38:03;;;;;;;4.93;4.53;;;;;;;;;;5055869;28;20487;-91
2023/06/09 09:40:29;;;;;;;8.73;4.70;;;;;;;;;;5054559;28;20408;-89
2023/06/09 09:42:58;;;;;;;5.67;4.83;;;;;;;;;;5054523;28;20412;-89
2023/06/09 09:45:29;;;;;;;6.63;4.30;;;;;;;;;;5054197;28;20545;-87
2023/06/09 09:48:08;;;;;;;5.07;4.43;;;;;;;;;;5054156;28;20521;-89
2023/06/09 09:50:36;;;;;;;5.20;4.30;;;;;;;;;;5054223;28;20408;-91
2023/06/09 09:53:03;;;;;;;6.23;4.53;;;;;;;;;;5054081;28;20408;-84
2023/06/09 09:55:29;;;;;;;5.20;4.60;;;;;;;;;;5053021;28;20471;-84
2023/06/09 09:57:56;;;;;;;4.43;4.13;;;;;;;;;;5054739;28;20412;-85
2023/06/09 10:00:23;;;;;;;4.30;3.90;;;;;;;;;;5054921;28;20396;-85
2023/06/09 10:02:51;;;;;;;4.50;4.10;;;;;;;;;;5055039;28;20432;-86
2023/06/09 10:05:18;;;;;;;4.97;4.57;;;;;;;;;;5054132;28;20487;-86
2023/06/09 10:07:45;;;;;;;4.43;4.03;;;;;;;;;;5054187;28;20400;-86
2023/06/09 10:10:12;;;;;;;4.90;4.40;;;;;;;;;;5054001;28;20404;-85
2023/06/09 10:12:38;;;;;;;4.33;3.93;;;;;;;;;;5053747;28;20412;-85
2023/06/09 10:15:08;;;;;;;6.73;4.40;;;;;;;;;;5054748;28;20471;-87
2023/06/09 10:17:36;;;;;;;4.50;4.10;;;;;;;;;;5053675;28;20794;-84
2023/06/09 10:20:04;;;;;;;4.40;4.03;;;;;;;;;;5053784;28;20415;-82
2023/06/09 10:22:30;;;;;;;6.10;4.03;;;;;;;;;;5053273;28;20419;-84
2023/06/09 10:24:58;;;;;;;5.00;4.60;;;;;;;;;;5053511;28;20499;-85
2023/06/09 10:27:24;;;;;;;32.83;6.97;;;;;;;;;;5053158;28;20412;-83
2023/06/09 10:29:51;;;;;;;7.10;4.50;;;;;;;;;;5053810;28;20400;-83
2023/06/09 10:32:20;;;;;;;4.93;3.60;;;;;;;;;;5053076;28;20468;-86
2023/06/09 10:34:48;;;;;;;4.57;3.97;;;;;;;;;;5053469;28;20459;-84
2023/06/09 10:37:26;;;;;;;4.23;3.80;;;;;;;;;;5053770;28;20411;-84
2023/06/09 10:40:05;;;;;;;7.90;3.73;;;;;;;;;;5053289;28;20483;-85
2023/06/09 10:42:37;;;;;;;4.97;4.20;;;;;;;;;;5054313;28;20399;-83
2023/06/09 10:45:09;;;;;;;4.33;3.80;;;;;;;;;;5053386;28;20989;-81
2023/06/09 10:47:43;;;;;;;4.17;3.63;;;;;;;;;;5053175;28;20411;-83
2023/06/09 10:50:22;;;;;;;4.33;3.83;;;;;;;;;;5053001;28;20908;-83
2023/06/09 10:52:55;;;;;;;5.43;3.67;;;;;;;;;;5053344;28;20404;-85
2023/06/09 10:55:22;;;;;;;4.33;3.53;;;;;;;;;;5053029;28;20467;-82
2023/06/09 10:57:49;;;;;;;4.03;3.73;;;;;;;;;;5052588;28;20897;-82
2023/06/09 11:00:16;;;;;;;4.30;3.90;;;;;;;;;;5053297;28;20530;-81
2023/06/09 11:02:46;;;;;;;5.47;3.93;;;;;;;;;;5053195;28;20431;-82
2023/06/09 11:05:12;;;;;;;4.00;3.70;;;;;;;;;;5052883;28;20404;-83
2023/06/09 11:07:43;;;;;;;3.60;3.40;;;;;;;;;;5052951;28;20404;-84
2023/06/09 11:10:11;;;;;;;3.23;3.00;;;;;;;;;;5052866;28;20778;-75
2023/06/09 11:12:37;;;;;;;4.77;4.30;;;;;;;;;;5052349;28;20412;-73
2023/06/09 11:15:03;;;;;;;4.87;3.90;;;;;;;;;;5052648;28;20813;-73
2023/06/09 11:17:39;;;;;;;4.53;4.03;;;;;;;;;;5052287;28;20412;-73
2023/06/09 11:20:09;;;;;;;3.53;3.30;;;;;;;;;;5052527;28;20416;-73
2023/06/09 11:22:35;;;;;;;3.93;3.57;;;;;;;;;;5052286;28;20916;-75
2023/06/09 11:25:02;;;;;;;3.47;3.17;;;;;;;;;;5052827;28;20421;-75
2023/06/09 11:27:28;;;;;;;3.77;3.20;;;;;;;;;;5052428;28;20755;-75
2023/06/09 11:30:07;;;;;;;4.03;3.73;;;;;;;;;;5052476;28;20431;-75
2023/06/09 11:32:45;;;;;;;4.07;3.67;;;;;;;;;;5052078;28;20541;-76
2023/06/09 11:35:31;;;;;;;3.93;3.53;;;;;;;;;;5052388;28;20467;-75
2023/06/09 11:38:07;;;;;;;3.87;3.57;;;;;;;;;;5052601;28;20534;-73
2023/06/09 11:40:34;;;;;;;3.47;3.27;;;;;;;;;;5052042;28;20403;-74
2023/06/09 11:43:01;;;;;;;4.30;3.90;;;;;;;;;;5052823;28;20770;-74
2023/06/09 11:45:29;;;;;;;3.70;3.40;;;;;;;;;;5052089;28;20416;-74
2023/06/09 11:47:59;;;;;;;5.40;3.93;;;;;;;;;;5052599;28;20459;-73
2023/06/09 11:50:26;;;;;;;3.90;3.60;;;;;;;;;;5052242;28;20482;-74
2023/06/09 11:53:02;;;;;;;3.60;3.30;;;;;;;;;;5051862;28;20412;-74
2023/06/09 11:55:29;;;;;;;7.03;3.90;;;;;;;;;;5052181;28;20482;-74
2023/06/09 11:57:55;;;;;;;5.70;3.60;;;;;;;;;;5052195;28;20409;-73
2023/06/09 12:00:25;;;;;;;5.93;3.40;;;;;;;;;;5052206;28;20806;-75
2023/06/09 12:02:51;;;;;;;3.50;3.20;;;;;;;;;;5051893;28;20455;-73
2023/06/09 12:05:17;;;;;;;3.50;3.20;;;;;;;;;;5052114;28;20410;-73
2023/06/09 12:07:44;;;;;;;3.50;3.20;;;;;;;;;;5052085;28;20410;-74
2023/06/09 12:10:10;;;;;;;7.13;3.40;;;;;;;;;;5054116;28;20400;-74
2023/06/09 12:12:46;;;;;;;3.77;3.03;;;;;;;;;;5055272;28;20902;-74
2023/06/09 12:15:12;;;;;;;3.40;3.20;;;;;;;;;;5055673;28;20458;-74
2023/06/09 12:17:39;;;;;;;3.90;3.60;;;;;;;;;;5055394;28;20474;-74
2023/06/09 12:20:24;;;;;;;4.77;3.43;;;;;;;;;;5055700;28;20406;-74
2023/06/09 12:22:50;;;;;;;3.50;3.20;;;;;;;;;;5055044;28;20892;-74
2023/06/09 12:25:21;;;;;;;3.47;3.20;;;;;;;;;;5055480;28;20435;-74
2023/06/09 12:27:47;;;;;;;4.40;4.00;;;;;;;;;;5055186;28;20408;-74
2023/06/09 12:30:32;;;;;;;4.00;3.40;;;;;;;;;;5055338;28;20415;-74
2023/06/09 12:32:58;;;;;;;4.77;3.33;;;;;;;;;;5055408;28;20460;-73
2023/06/09 12:35:24;;;;;;;4.17;3.77;;;;;;;;;;5054923;28;20935;-74
2023/06/09 12:37:50;;;;;;;5.07;3.93;;;;;;;;;;5055345;28;20423;-74
2023/06/09 12:40:16;;;;;;;3.63;3.33;;;;;;;;;;5055567;28;20400;-74
2023/06/09 12:42:47;;;;;;;4.00;3.70;;;;;;;;;;5054732;28;20412;-74
2023/06/09 12:45:16;;;;;;;4.00;3.30;;;;;;;;;;5055381;28;20494;-74
2023/06/09 12:47:49;;;;;;;4.00;3.40;;;;;;;;;;5054854;28;20756;-74
2023/06/09 12:50:15;;;;;;;3.73;3.20;;;;;;;;;;5055028;28;20400;-74
2023/06/09 12:52:41;;;;;;;3.63;3.33;;;;;;;;;;5054732;28;20419;-74
2023/06/09 12:55:08;;;;;;;8.07;4.07;;;;;;;;;;5054832;28;20459;-75
2023/06/09 12:57:36;;;;;;;3.03;2.83;;;;;;;;;;5054404;28;20404;-75
2023/06/09 13:00:04;;;;;;;4.20;3.13;;;;;;;;;;5054863;28;20834;-75
2023/06/09 13:02:30;;;;;;;3.63;3.40;;;;;;;;;;5054724;28;20416;-75
2023/06/09 13:04:56;;;;;;;4.17;3.80;;;;;;;;;;5054777;28;20418;-75
2023/06/09 13:07:22;;;;;;;8.90;4.03;;;;;;;;;;5054820;28;20400;-75
2023/06/09 13:09:48;;;;;;;4.97;3.93;;;;;;;;;;5054913;28;20952;-75
2023/06/09 13:12:14;;;;;;;3.47;3.20;;;;;;;;;;5054568;28;20412;-75
2023/06/09 13:14:40;;;;;;;4.73;3.37;;;;;;;;;;5054400;28;20459;-75
2023/06/09 13:17:06;;;;;;;5.10;3.37;;;;;;;;;;5054545;28;20462;-75
2023/06/09 13:19:32;;;;;;;3.20;3.00;;;;;;;;;;5054495;28;20888;-76
2023/06/09 13:21:58;;;;;;;4.20;3.60;;;;;;;;;;5054219;28;20404;-75
2023/06/09 13:24:24;;;;;;;5.83;4.10;;;;;;;;;;5054341;28;20405;-75
2023/06/09 13:26:50;;;;;;;3.43;3.20;;;;;;;;;;5054096;28;20466;-75
2023/06/09 13:29:16;;;;;;;3.87;3.53;;;;;;;;;;5054529;28;20412;-75
2023/06/09 13:31:42;;;;;;;3.90;3.60;;;;;;;;;;5052598;28;21007;-75
2023/06/09 13:34:08;;;;;;;4.33;4.00;;;;;;;;;;5054448;28;20808;-75
2023/06/09 13:36:35;;;;;;;4.03;3.73;;;;;;;;;;5054071;28;20769;-75
2023/06/09 13:39:01;;;;;;;5.67;3.60;;;;;;;;;;5054013;28;20410;-75
2023/06/09 13:41:30;;;;;;;3.80;3.50;;;;;;;;;;5054343;28;20478;-77
2023/06/09 13:43:56;;;;;;;3.67;3.37;;;;;;;;;;5054070;28;20421;-75
2023/06/09 13:46:22;;;;;;;4.07;3.70;;;;;;;;;;5054138;28;20838;-75
2023/06/09 13:48:49;;;;;;;4.00;3.67;;;;;;;;;;5053659;28;20409;-75
2023/06/09 13:51:15;;;;;;;4.13;3.83;;;;;;;;;;5053887;28;20927;-75
2023/06/09 13:53:41;;;;;;;3.53;3.23;;;;;;;;;;5053513;28;20412;-75
2023/06/09 13:56:07;;;;;;;3.70;3.40;;;;;;;;;;5054006;28;20976;-75
2023/06/09 13:58:33;;;;;;;4.33;3.23;;;;;;;;;;5053780;28;20743;-75
2023/06/09 14:00:59;;;;;;;3.47;3.17;;;;;;;;;;5053909;28;20501;-75
2023/06/09 14:03:25;;;;;;;5.47;3.50;;;;;;;;;;5053707;28;20412;-75
2023/06/09 14:05:51;;;;;;;5.63;3.20;;;;;;;;;;5053511;28;20408;-75
2023/06/09 14:08:17;;;;;;;3.90;3.50;;;;;;;;;;5053459;28;20427;-75
2023/06/09 14:10:43;;;;;;;4.07;3.77;;;;;;;;;;5053429;28;20415;-75
2023/06/09 14:13:09;;;;;;;6.47;3.53;;;;;;;;;;5053752;28;20401;-75
2023/06/09 14:15:35;;;;;;;4.20;3.80;;;;;;;;;;5053344;28;20463;-76
2023/06/09 14:18:01;;;;;;;5.13;3.30;;;;;;;;;;5053328;28;20411;-75
2023/06/09 14:20:28;;;;;;;6.33;3.70;;;;;;;;;;5053609;28;20404;-75
2023/06/09 14:22:56;;;;;;;4.10;3.40;;;;;;;;;;5053024;28;20922;-75
2023/06/09 14:25:22;;;;;;;4.00;3.60;;;;;;;;;;5053532;28;20424;-75
2023/06/09 14:27:50;;;;;;;3.80;3.50;;;;;;;;;;5053105;28;20414;-75
2023/06/09 14:30:18;;;;;;;7.50;3.93;;;;;;;;;;5053171;28;20904;-76
2023/06/09 14:32:48;;;;;;;4.30;3.30;;;;;;;;;;5052460;28;20456;-75